sensor_id;sensor_type;location;lat;lon;timestamp;temperature;humidity
53045;DHT22;38930;52.766;6.884;2024-03-25T00:00:13;5.80;99.90
53045;DHT22;38930;52.766;6.884;2024-03-25T00:02:39;5.80;99.90
53045;DHT22;38930;52.766;6.884;2024-03-25T00:05:05;5.90;99.90
53045;DHT22;38930;52.766;6.884;2024-03-25T00:07:32;5.80;99.90
53045;DHT22;38930;52.766;6.884;2024-03-25T00:09:58;5.90;99.90
53045;DHT22;38930;52.766;6.884;2024-03-25T00:12:25;5.80;99.90
53045;DHT22;38930;52.766;6.884;2024-03-25T00:14:51;5.80;99.90
53045;DHT22;38930;52.766;6.884;2024-03-25T00:17:16;5.80;99.90
53045;DHT22;38930;52.766;6.884;2024-03-25T00:19:42;5.70;99.90
53045;DHT22;38930;52.766;6.884;2024-03-25T00:22:08;6.60;99.90
53045;DHT22;38930;52.766;6.884;2024-03-25T00:24:34;5.60;99.90
53045;DHT22;38930;52.766;6.884;2024-03-25T00:26:59;5.60;99.90
53045;DHT22;38930;52.766;6.884;2024-03-25T00:29:25;5.60;99.90
53045;DHT22;38930;52.766;6.884;2024-03-25T00:31:50;5.50;99.90
53045;DHT22;38930;52.766;6.884;2024-03-25T00:34:16;5.50;99.90
53045;DHT22;38930;52.766;6.884;2024-03-25T00:36:43;5.40;99.90
53045;DHT22;38930;52.766;6.884;2024-03-25T00:39:08;5.40;99.90
53045;DHT22;38930;52.766;6.884;2024-03-25T00:41:35;5.40;99.90
53045;DHT22;38930;52.766;6.884;2024-03-25T00:44:01;5.30;99.90
53045;DHT22;38930;52.766;6.884;2024-03-25T00:47:03;5.30;99.90
53045;DHT22;38930;52.766;6.884;2024-03-25T00:49:29;5.30;99.90
53045;DHT22;38930;52.766;6.884;2024-03-25T00:51:55;5.30;99.90
53045;DHT22;38930;52.766;6.884;2024-03-25T00:54:23;5.20;99.90
53045;DHT22;38930;52.766;6.884;2024-03-25T00:56:49;5.90;99.90
53045;DHT22;38930;52.766;6.884;2024-03-25T00:59:17;5.20;99.90
53045;DHT22;38930;52.766;6.884;2024-03-25T01:01:42;5.30;99.90
53045;DHT22;38930;52.766;6.884;2024-03-25T01:04:08;5.30;99.90
53045;DHT22;38930;52.766;6.884;2024-03-25T01:06:34;5.30;99.90
53045;DHT22;38930;52.766;6.884;2024-03-25T01:08:59;5.30;99.90
53045;DHT22;38930;52.766;6.884;2024-03-25T01:11:25;5.30;99.90
53045;DHT22;38930;52.766;6.884;2024-03-25T01:13:50;5.30;99.90
53045;DHT22;38930;52.766;6.884;2024-03-25T01:16:16;5.20;99.90
53045;DHT22;38930;52.766;6.884;2024-03-25T01:18:42;5.20;99.90
53045;DHT22;38930;52.766;6.884;2024-03-25T01:21:07;5.20;99.90
53045;DHT22;38930;52.766;6.884;2024-03-25T01:23:33;5.10;99.90
53045;DHT22;38930;52.766;6.884;2024-03-25T01:25:58;5.10;99.90
53045;DHT22;38930;52.766;6.884;2024-03-25T01:28:24;5.10;99.90
53045;DHT22;38930;52.766;6.884;2024-03-25T01:30:50;5.10;99.90
53045;DHT22;38930;52.766;6.884;2024-03-25T01:33:15;5.10;99.90
53045;DHT22;38930;52.766;6.884;2024-03-25T01:35:41;5.60;99.90
53045;DHT22;38930;52.766;6.884;2024-03-25T01:38:07;5.10;99.90
53045;DHT22;38930;52.766;6.884;2024-03-25T01:40:33;5.10;99.90
53045;DHT22;38930;52.766;6.884;2024-03-25T01:43:03;5.10;99.90
53045;DHT22;38930;52.766;6.884;2024-03-25T01:45:30;5.10;99.90
53045;DHT22;38930;52.766;6.884;2024-03-25T01:48:02;5.10;99.90
53045;DHT22;38930;52.766;6.884;2024-03-25T01:50:29;5.10;99.90
53045;DHT22;38930;52.766;6.884;2024-03-25T01:52:55;5.00;99.90
53045;DHT22;38930;52.766;6.884;2024-03-25T01:55:24;5.00;99.90
53045;DHT22;38930;52.766;6.884;2024-03-25T01:57:51;5.00;99.90
53045;DHT22;38930;52.766;6.884;2024-03-25T02:00:17;5.00;99.90
53045;DHT22;38930;52.766;6.884;2024-03-25T02:02:43;5.00;99.90
53045;DHT22;38930;52.766;6.884;2024-03-25T02:05:14;4.90;99.90
53045;DHT22;38930;52.766;6.884;2024-03-25T02:07:40;4.90;99.90
53045;DHT22;38930;52.766;6.884;2024-03-25T02:10:07;4.90;99.90
53045;DHT22;38930;52.766;6.884;2024-03-25T02:12:36;4.90;99.90
53045;DHT22;38930;52.766;6.884;2024-03-25T02:15:02;4.90;99.90
53045;DHT22;38930;52.766;6.884;2024-03-25T02:17:28;4.90;99.90
53045;DHT22;38930;52.766;6.884;2024-03-25T02:19:53;4.90;99.90
53045;DHT22;38930;52.766;6.884;2024-03-25T02:22:19;4.90;99.90
53045;DHT22;38930;52.766;6.884;2024-03-25T02:24:45;4.90;99.90
53045;DHT22;38930;52.766;6.884;2024-03-25T02:27:12;4.90;99.90
53045;DHT22;38930;52.766;6.884;2024-03-25T02:29:41;4.90;99.90
53045;DHT22;38930;52.766;6.884;2024-03-25T02:32:07;4.90;99.90
53045;DHT22;38930;52.766;6.884;2024-03-25T02:34:41;4.90;99.90
53045;DHT22;38930;52.766;6.884;2024-03-25T02:37:08;4.90;99.90
53045;DHT22;38930;52.766;6.884;2024-03-25T02:39:34;5.10;99.90
53045;DHT22;38930;52.766;6.884;2024-03-25T02:42:00;5.70;99.90
53045;DHT22;38930;52.766;6.884;2024-03-25T02:44:26;4.90;99.90
53045;DHT22;38930;52.766;6.884;2024-03-25T02:46:52;4.90;99.90
53045;DHT22;38930;52.766;6.884;2024-03-25T02:49:18;4.90;99.90
53045;DHT22;38930;52.766;6.884;2024-03-25T02:51:43;4.90;99.90
53045;DHT22;38930;52.766;6.884;2024-03-25T02:54:09;5.00;99.90
53045;DHT22;38930;52.766;6.884;2024-03-25T02:56:35;4.90;99.90
53045;DHT22;38930;52.766;6.884;2024-03-25T02:59:01;5.00;99.90
53045;DHT22;38930;52.766;6.884;2024-03-25T03:01:28;5.00;99.90
53045;DHT22;38930;52.766;6.884;2024-03-25T03:03:53;5.00;99.90
53045;DHT22;38930;52.766;6.884;2024-03-25T03:06:19;5.00;99.90
53045;DHT22;38930;52.766;6.884;2024-03-25T03:08:45;5.00;99.90
53045;DHT22;38930;52.766;6.884;2024-03-25T03:11:10;5.00;99.90
53045;DHT22;38930;52.766;6.884;2024-03-25T03:13:36;5.00;99.90
53045;DHT22;38930;52.766;6.884;2024-03-25T03:16:02;5.00;99.90
53045;DHT22;38930;52.766;6.884;2024-03-25T03:18:28;5.00;99.90
53045;DHT22;38930;52.766;6.884;2024-03-25T03:20:53;5.00;99.90
53045;DHT22;38930;52.766;6.884;2024-03-25T03:23:23;5.00;99.90
53045;DHT22;38930;52.766;6.884;2024-03-25T03:25:48;5.00;99.90
53045;DHT22;38930;52.766;6.884;2024-03-25T03:28:14;5.00;99.90
53045;DHT22;38930;52.766;6.884;2024-03-25T03:30:40;5.00;99.90
53045;DHT22;38930;52.766;6.884;2024-03-25T03:33:06;5.00;99.90
53045;DHT22;38930;52.766;6.884;2024-03-25T03:35:35;5.00;99.90
53045;DHT22;38930;52.766;6.884;2024-03-25T03:38:00;5.00;99.90
53045;DHT22;38930;52.766;6.884;2024-03-25T03:40:28;5.00;99.90
53045;DHT22;38930;52.766;6.884;2024-03-25T03:42:53;5.00;99.90
53045;DHT22;38930;52.766;6.884;2024-03-25T03:45:19;5.00;99.90
53045;DHT22;38930;52.766;6.884;2024-03-25T03:47:44;5.00;99.90
53045;DHT22;38930;52.766;6.884;2024-03-25T03:50:10;5.00;99.90
53045;DHT22;38930;52.766;6.884;2024-03-25T03:52:36;5.00;99.90
53045;DHT22;38930;52.766;6.884;2024-03-25T03:55:01;5.00;99.90
53045;DHT22;38930;52.766;6.884;2024-03-25T03:57:27;5.00;99.90
53045;DHT22;38930;52.766;6.884;2024-03-25T03:59:52;5.50;99.90
53045;DHT22;38930;52.766;6.884;2024-03-25T04:02:18;5.00;99.90
53045;DHT22;38930;52.766;6.884;2024-03-25T04:04:43;5.00;99.90
53045;DHT22;38930;52.766;6.884;2024-03-25T04:07:10;5.00;99.90
53045;DHT22;38930;52.766;6.884;2024-03-25T04:09:35;5.00;99.90
53045;DHT22;38930;52.766;6.884;2024-03-25T04:12:01;5.00;99.90
53045;DHT22;38930;52.766;6.884;2024-03-25T04:14:26;5.00;99.90
53045;DHT22;38930;52.766;6.884;2024-03-25T04:16:52;5.00;99.90
53045;DHT22;38930;52.766;6.884;2024-03-25T04:19:19;5.00;99.90
53045;DHT22;38930;52.766;6.884;2024-03-25T04:21:45;5.00;99.90
53045;DHT22;38930;52.766;6.884;2024-03-25T04:24:11;5.00;99.90
53045;DHT22;38930;52.766;6.884;2024-03-25T04:26:37;5.00;99.90
53045;DHT22;38930;52.766;6.884;2024-03-25T04:29:03;5.00;99.90
53045;DHT22;38930;52.766;6.884;2024-03-25T04:31:29;4.90;99.90
53045;DHT22;38930;52.766;6.884;2024-03-25T04:33:54;4.90;99.90
53045;DHT22;38930;52.766;6.884;2024-03-25T04:36:20;5.30;99.90
53045;DHT22;38930;52.766;6.884;2024-03-25T04:38:46;4.90;99.90
53045;DHT22;38930;52.766;6.884;2024-03-25T04:41:11;4.90;99.90
53045;DHT22;38930;52.766;6.884;2024-03-25T04:43:37;4.90;99.90
53045;DHT22;38930;52.766;6.884;2024-03-25T04:46:02;4.90;99.90
53045;DHT22;38930;52.766;6.884;2024-03-25T04:48:28;4.90;99.90
53045;DHT22;38930;52.766;6.884;2024-03-25T04:50:55;4.90;99.90
53045;DHT22;38930;52.766;6.884;2024-03-25T04:53:20;4.90;99.90
53045;DHT22;38930;52.766;6.884;2024-03-25T04:55:46;4.90;99.90
53045;DHT22;38930;52.766;6.884;2024-03-25T04:58:11;4.90;99.90
53045;DHT22;38930;52.766;6.884;2024-03-25T05:00:37;5.00;99.90
53045;DHT22;38930;52.766;6.884;2024-03-25T05:03:03;4.80;99.90
53045;DHT22;38930;52.766;6.884;2024-03-25T05:05:29;4.80;99.90
53045;DHT22;38930;52.766;6.884;2024-03-25T05:07:55;4.80;99.90
53045;DHT22;38930;52.766;6.884;2024-03-25T05:10:21;4.80;99.90
53045;DHT22;38930;52.766;6.884;2024-03-25T05:12:46;4.80;99.90
53045;DHT22;38930;52.766;6.884;2024-03-25T05:15:15;4.70;99.90
53045;DHT22;38930;52.766;6.884;2024-03-25T05:17:41;5.00;99.90
53045;DHT22;38930;52.766;6.884;2024-03-25T05:20:06;5.60;99.90
53045;DHT22;38930;52.766;6.884;2024-03-25T05:22:32;4.70;99.90
53045;DHT22;38930;52.766;6.884;2024-03-25T05:24:58;4.70;99.90
53045;DHT22;38930;52.766;6.884;2024-03-25T05:27:23;4.70;99.90
53045;DHT22;38930;52.766;6.884;2024-03-25T05:29:49;4.70;99.90
53045;DHT22;38930;52.766;6.884;2024-03-25T05:32:15;4.70;99.90
53045;DHT22;38930;52.766;6.884;2024-03-25T05:34:42;4.70;99.90
53045;DHT22;38930;52.766;6.884;2024-03-25T05:37:07;4.70;99.90
53045;DHT22;38930;52.766;6.884;2024-03-25T05:39:33;4.70;99.90
53045;DHT22;38930;52.766;6.884;2024-03-25T05:41:58;4.70;99.90
53045;DHT22;38930;52.766;6.884;2024-03-25T05:44:24;4.70;99.90
53045;DHT22;38930;52.766;6.884;2024-03-25T05:46:49;4.70;99.90
53045;DHT22;38930;52.766;6.884;2024-03-25T05:49:15;4.60;99.90
53045;DHT22;38930;52.766;6.884;2024-03-25T05:51:41;4.60;99.90
53045;DHT22;38930;52.766;6.884;2024-03-25T05:54:06;4.60;99.90
53045;DHT22;38930;52.766;6.884;2024-03-25T05:56:32;4.50;99.90
53045;DHT22;38930;52.766;6.884;2024-03-25T05:58:58;4.50;99.90
53045;DHT22;38930;52.766;6.884;2024-03-25T06:01:24;4.50;99.90
53045;DHT22;38930;52.766;6.884;2024-03-25T06:03:49;4.50;99.90
53045;DHT22;38930;52.766;6.884;2024-03-25T06:06:15;4.50;99.90
53045;DHT22;38930;52.766;6.884;2024-03-25T06:08:41;4.50;99.90
53045;DHT22;38930;52.766;6.884;2024-03-25T06:11:06;5.40;99.90
53045;DHT22;38930;52.766;6.884;2024-03-25T06:13:32;4.50;99.90
53045;DHT22;38930;52.766;6.884;2024-03-25T06:15:58;4.60;99.90
53045;DHT22;38930;52.766;6.884;2024-03-25T06:18:24;4.50;99.90
53045;DHT22;38930;52.766;6.884;2024-03-25T06:20:49;4.60;99.90
53045;DHT22;38930;52.766;6.884;2024-03-25T06:23:25;4.80;99.90
53045;DHT22;38930;52.766;6.884;2024-03-25T06:25:52;4.70;99.90
53045;DHT22;38930;52.766;6.884;2024-03-25T06:28:18;4.70;99.90
53045;DHT22;38930;52.766;6.884;2024-03-25T06:30:48;4.70;99.90
53045;DHT22;38930;52.766;6.884;2024-03-25T06:33:33;4.70;99.90
53045;DHT22;38930;52.766;6.884;2024-03-25T06:36:18;4.80;99.90
53045;DHT22;38930;52.766;6.884;2024-03-25T06:38:43;4.90;99.90
53045;DHT22;38930;52.766;6.884;2024-03-25T06:41:09;4.90;99.90
53045;DHT22;38930;52.766;6.884;2024-03-25T06:43:36;4.90;99.90
53045;DHT22;38930;52.766;6.884;2024-03-25T06:46:03;5.00;99.90
53045;DHT22;38930;52.766;6.884;2024-03-25T06:48:29;5.10;99.90
53045;DHT22;38930;52.766;6.884;2024-03-25T06:50:59;5.10;99.90
53045;DHT22;38930;52.766;6.884;2024-03-25T06:53:25;5.10;99.90
53045;DHT22;38930;52.766;6.884;2024-03-25T06:55:52;5.10;99.90
53045;DHT22;38930;52.766;6.884;2024-03-25T06:58:18;5.20;99.90
53045;DHT22;38930;52.766;6.884;2024-03-25T07:00:44;5.10;99.90
53045;DHT22;38930;52.766;6.884;2024-03-25T07:03:09;5.20;99.90
53045;DHT22;38930;52.766;6.884;2024-03-25T07:05:35;5.90;99.90
53045;DHT22;38930;52.766;6.884;2024-03-25T07:08:01;5.20;99.90
53045;DHT22;38930;52.766;6.884;2024-03-25T07:10:26;5.70;99.90
53045;DHT22;38930;52.766;6.884;2024-03-25T07:12:52;5.30;99.90
53045;DHT22;38930;52.766;6.884;2024-03-25T07:15:17;5.40;99.90
53045;DHT22;38930;52.766;6.884;2024-03-25T07:17:43;6.30;99.90
53045;DHT22;38930;52.766;6.884;2024-03-25T07:20:09;5.50;99.90
53045;DHT22;38930;52.766;6.884;2024-03-25T07:22:34;5.60;99.90
53045;DHT22;38930;52.766;6.884;2024-03-25T07:25:00;5.70;99.90
53045;DHT22;38930;52.766;6.884;2024-03-25T07:27:26;5.80;99.90
53045;DHT22;38930;52.766;6.884;2024-03-25T07:29:51;5.90;99.90
53045;DHT22;38930;52.766;6.884;2024-03-25T07:32:17;6.00;99.90
53045;DHT22;38930;52.766;6.884;2024-03-25T07:34:42;6.10;99.90
53045;DHT22;38930;52.766;6.884;2024-03-25T07:37:08;6.20;99.90
53045;DHT22;38930;52.766;6.884;2024-03-25T07:39:33;6.20;99.90
53045;DHT22;38930;52.766;6.884;2024-03-25T07:41:59;6.30;99.90
53045;DHT22;38930;52.766;6.884;2024-03-25T07:44:24;6.40;99.90
53045;DHT22;38930;52.766;6.884;2024-03-25T07:46:50;6.50;99.90
53045;DHT22;38930;52.766;6.884;2024-03-25T07:49:17;6.50;99.90
53045;DHT22;38930;52.766;6.884;2024-03-25T07:51:43;6.70;99.90
53045;DHT22;38930;52.766;6.884;2024-03-25T07:54:08;6.70;99.90
53045;DHT22;38930;52.766;6.884;2024-03-25T07:56:35;6.70;99.90
53045;DHT22;38930;52.766;6.884;2024-03-25T07:59:03;6.80;99.90
53045;DHT22;38930;52.766;6.884;2024-03-25T08:01:29;6.80;99.90
53045;DHT22;38930;52.766;6.884;2024-03-25T08:03:55;6.80;99.90
53045;DHT22;38930;52.766;6.884;2024-03-25T08:06:20;6.80;99.90
53045;DHT22;38930;52.766;6.884;2024-03-25T08:08:47;6.70;99.90
53045;DHT22;38930;52.766;6.884;2024-03-25T08:11:12;6.70;99.90
53045;DHT22;38930;52.766;6.884;2024-03-25T08:13:38;7.30;99.90
53045;DHT22;38930;52.766;6.884;2024-03-25T08:16:04;6.80;99.90
53045;DHT22;38930;52.766;6.884;2024-03-25T08:18:29;6.90;99.90
53045;DHT22;38930;52.766;6.884;2024-03-25T08:20:55;7.00;99.90
53045;DHT22;38930;52.766;6.884;2024-03-25T08:23:21;7.00;99.90
53045;DHT22;38930;52.766;6.884;2024-03-25T08:25:46;7.60;99.90
53045;DHT22;38930;52.766;6.884;2024-03-25T08:28:12;7.30;99.90
53045;DHT22;38930;52.766;6.884;2024-03-25T08:30:37;7.40;99.90
53045;DHT22;38930;52.766;6.884;2024-03-25T08:33:03;7.50;99.90
53045;DHT22;38930;52.766;6.884;2024-03-25T08:35:29;7.50;99.90
53045;DHT22;38930;52.766;6.884;2024-03-25T08:37:54;7.60;99.90
53045;DHT22;38930;52.766;6.884;2024-03-25T08:40:20;7.90;99.90
53045;DHT22;38930;52.766;6.884;2024-03-25T08:42:45;7.60;99.90
53045;DHT22;38930;52.766;6.884;2024-03-25T08:45:11;7.70;99.90
53045;DHT22;38930;52.766;6.884;2024-03-25T08:47:36;7.80;99.90
53045;DHT22;38930;52.766;6.884;2024-03-25T08:50:03;7.60;99.90
53045;DHT22;38930;52.766;6.884;2024-03-25T08:52:29;7.60;99.90
53045;DHT22;38930;52.766;6.884;2024-03-25T08:54:55;7.50;99.90
53045;DHT22;38930;52.766;6.884;2024-03-25T08:57:20;7.70;99.90
53045;DHT22;38930;52.766;6.884;2024-03-25T08:59:46;7.50;99.90
53045;DHT22;38930;52.766;6.884;2024-03-25T09:02:11;7.50;99.90
53045;DHT22;38930;52.766;6.884;2024-03-25T09:04:37;7.60;99.90
53045;DHT22;38930;52.766;6.884;2024-03-25T09:07:04;7.80;99.90
53045;DHT22;38930;52.766;6.884;2024-03-25T09:09:29;7.90;99.90
53045;DHT22;38930;52.766;6.884;2024-03-25T09:12:14;8.00;99.90
53045;DHT22;38930;52.766;6.884;2024-03-25T09:14:39;8.90;99.90
53045;DHT22;38930;52.766;6.884;2024-03-25T09:17:05;8.10;99.90
53045;DHT22;38930;52.766;6.884;2024-03-25T09:19:30;8.20;99.90
53045;DHT22;38930;52.766;6.884;2024-03-25T09:21:56;8.20;99.90
53045;DHT22;38930;52.766;6.884;2024-03-25T09:24:22;8.20;99.90
53045;DHT22;38930;52.766;6.884;2024-03-25T09:26:50;8.50;99.90
53045;DHT22;38930;52.766;6.884;2024-03-25T09:29:15;8.60;99.90
53045;DHT22;38930;52.766;6.884;2024-03-25T09:31:41;9.00;99.90
53045;DHT22;38930;52.766;6.884;2024-03-25T09:34:07;8.70;99.90
53045;DHT22;38930;52.766;6.884;2024-03-25T09:36:32;9.30;99.90
53045;DHT22;38930;52.766;6.884;2024-03-25T09:38:58;8.70;99.90
53045;DHT22;38930;52.766;6.884;2024-03-25T09:41:23;8.80;99.90
53045;DHT22;38930;52.766;6.884;2024-03-25T09:43:54;8.80;99.90
53045;DHT22;38930;52.766;6.884;2024-03-25T09:46:21;8.80;99.90
53045;DHT22;38930;52.766;6.884;2024-03-25T09:48:48;8.60;99.90
53045;DHT22;38930;52.766;6.884;2024-03-25T09:51:15;9.40;99.90
53045;DHT22;38930;52.766;6.884;2024-03-25T09:53:40;8.80;99.90
53045;DHT22;38930;52.766;6.884;2024-03-25T09:56:07;8.80;99.90
53045;DHT22;38930;52.766;6.884;2024-03-25T09:58:33;8.80;99.90
53045;DHT22;38930;52.766;6.884;2024-03-25T10:00:58;8.90;99.90
53045;DHT22;38930;52.766;6.884;2024-03-25T10:03:24;8.90;99.90
53045;DHT22;38930;52.766;6.884;2024-03-25T10:05:50;9.00;99.90
53045;DHT22;38930;52.766;6.884;2024-03-25T10:08:22;9.60;99.90
53045;DHT22;38930;52.766;6.884;2024-03-25T10:10:48;9.40;99.90
53045;DHT22;38930;52.766;6.884;2024-03-25T10:13:15;9.70;99.90
53045;DHT22;38930;52.766;6.884;2024-03-25T10:15:41;9.20;99.90
53045;DHT22;38930;52.766;6.884;2024-03-25T10:18:06;9.30;99.90
53045;DHT22;38930;52.766;6.884;2024-03-25T10:20:33;9.40;99.90
53045;DHT22;38930;52.766;6.884;2024-03-25T10:23:00;9.50;99.90
53045;DHT22;38930;52.766;6.884;2024-03-25T10:25:29;9.60;99.90
53045;DHT22;38930;52.766;6.884;2024-03-25T10:28:00;9.80;99.90
53045;DHT22;38930;52.766;6.884;2024-03-25T10:30:26;9.90;99.90
53045;DHT22;38930;52.766;6.884;2024-03-25T10:35:28;10.20;99.90
53045;DHT22;38930;52.766;6.884;2024-03-25T10:38:02;10.30;99.90
53045;DHT22;38930;52.766;6.884;2024-03-25T10:40:31;10.40;99.90
53045;DHT22;38930;52.766;6.884;2024-03-25T10:43:01;10.20;99.90
53045;DHT22;38930;52.766;6.884;2024-03-25T10:45:30;10.90;99.90
53045;DHT22;38930;52.766;6.884;2024-03-25T10:47:57;10.20;99.90
53045;DHT22;38930;52.766;6.884;2024-03-25T10:50:28;10.20;99.90
53045;DHT22;38930;52.766;6.884;2024-03-25T10:52:54;10.30;99.90
53045;DHT22;38930;52.766;6.884;2024-03-25T10:55:21;10.40;99.90
53045;DHT22;38930;52.766;6.884;2024-03-25T10:57:48;10.30;99.90
53045;DHT22;38930;52.766;6.884;2024-03-25T11:00:15;10.40;99.90
53045;DHT22;38930;52.766;6.884;2024-03-25T11:02:44;10.50;99.90
53045;DHT22;38930;52.766;6.884;2024-03-25T11:05:10;10.60;99.90
53045;DHT22;38930;52.766;6.884;2024-03-25T11:07:37;10.80;99.90
53045;DHT22;38930;52.766;6.884;2024-03-25T11:10:07;10.80;99.90
53045;DHT22;38930;52.766;6.884;2024-03-25T11:12:38;10.80;99.90
53045;DHT22;38930;52.766;6.884;2024-03-25T11:15:08;10.80;99.90
53045;DHT22;38930;52.766;6.884;2024-03-25T11:17:34;10.90;99.90
53045;DHT22;38930;52.766;6.884;2024-03-25T11:20:10;10.90;99.90
53045;DHT22;38930;52.766;6.884;2024-03-25T11:22:36;10.80;99.90
53045;DHT22;38930;52.766;6.884;2024-03-25T11:25:13;11.20;99.90
53045;DHT22;38930;52.766;6.884;2024-03-25T11:27:39;10.80;99.90
53045;DHT22;38930;52.766;6.884;2024-03-25T11:30:06;10.70;99.90
53045;DHT22;38930;52.766;6.884;2024-03-25T11:32:44;10.80;99.90
53045;DHT22;38930;52.766;6.884;2024-03-25T11:35:10;10.90;99.90
53045;DHT22;38930;52.766;6.884;2024-03-25T11:37:40;11.10;99.90
53045;DHT22;38930;52.766;6.884;2024-03-25T11:40:07;11.20;99.90
53045;DHT22;38930;52.766;6.884;2024-03-25T11:42:34;11.20;99.90
53045;DHT22;38930;52.766;6.884;2024-03-25T11:45:01;11.30;99.90
53045;DHT22;38930;52.766;6.884;2024-03-25T11:47:27;11.30;99.90
53045;DHT22;38930;52.766;6.884;2024-03-25T11:49:53;11.40;99.90
53045;DHT22;38930;52.766;6.884;2024-03-25T11:52:19;11.50;99.90
53045;DHT22;38930;52.766;6.884;2024-03-25T11:54:44;11.80;99.90
53045;DHT22;38930;52.766;6.884;2024-03-25T11:57:10;11.60;99.90
53045;DHT22;38930;52.766;6.884;2024-03-25T11:59:35;11.60;99.90
53045;DHT22;38930;52.766;6.884;2024-03-25T12:02:02;11.60;99.90
53045;DHT22;38930;52.766;6.884;2024-03-25T12:04:32;11.60;99.90
53045;DHT22;38930;52.766;6.884;2024-03-25T12:06:57;11.60;99.90
53045;DHT22;38930;52.766;6.884;2024-03-25T12:09:23;11.40;99.90
53045;DHT22;38930;52.766;6.884;2024-03-25T12:12:07;11.40;99.90
53045;DHT22;38930;52.766;6.884;2024-03-25T12:14:33;11.40;99.90
53045;DHT22;38930;52.766;6.884;2024-03-25T12:16:59;11.30;99.90
53045;DHT22;38930;52.766;6.884;2024-03-25T12:19:25;11.20;99.90
53045;DHT22;38930;52.766;6.884;2024-03-25T12:21:58;11.00;99.90
53045;DHT22;38930;52.766;6.884;2024-03-25T12:24:24;11.00;99.90
53045;DHT22;38930;52.766;6.884;2024-03-25T12:26:49;10.90;99.90
53045;DHT22;38930;52.766;6.884;2024-03-25T12:29:15;10.90;99.90
53045;DHT22;38930;52.766;6.884;2024-03-25T12:31:41;10.80;99.90
53045;DHT22;38930;52.766;6.884;2024-03-25T12:34:12;10.80;99.90
53045;DHT22;38930;52.766;6.884;2024-03-25T12:36:38;10.80;99.90
53045;DHT22;38930;52.766;6.884;2024-03-25T12:39:03;10.70;99.90
53045;DHT22;38930;52.766;6.884;2024-03-25T12:41:29;10.70;99.90
53045;DHT22;38930;52.766;6.884;2024-03-25T12:43:55;10.80;99.90
53045;DHT22;38930;52.766;6.884;2024-03-25T12:46:20;10.80;99.90
53045;DHT22;38930;52.766;6.884;2024-03-25T12:48:46;11.10;99.90
53045;DHT22;38930;52.766;6.884;2024-03-25T12:51:13;11.10;99.90
53045;DHT22;38930;52.766;6.884;2024-03-25T12:53:39;11.20;99.90
53045;DHT22;38930;52.766;6.884;2024-03-25T12:56:06;11.20;99.90
53045;DHT22;38930;52.766;6.884;2024-03-25T12:58:31;11.20;99.90
53045;DHT22;38930;52.766;6.884;2024-03-25T13:00:57;11.40;99.90
53045;DHT22;38930;52.766;6.884;2024-03-25T13:03:23;11.40;99.90
53045;DHT22;38930;52.766;6.884;2024-03-25T13:05:48;10.70;99.90
53045;DHT22;38930;52.766;6.884;2024-03-25T13:08:14;11.10;99.90
53045;DHT22;38930;52.766;6.884;2024-03-25T13:10:39;11.10;99.90
53045;DHT22;38930;52.766;6.884;2024-03-25T13:13:05;11.20;99.90
53045;DHT22;38930;52.766;6.884;2024-03-25T13:15:31;11.10;99.90
53045;DHT22;38930;52.766;6.884;2024-03-25T13:17:57;11.00;99.90
53045;DHT22;38930;52.766;6.884;2024-03-25T13:20:23;11.00;99.90
53045;DHT22;38930;52.766;6.884;2024-03-25T13:22:49;11.00;99.90
53045;DHT22;38930;52.766;6.884;2024-03-25T13:25:18;11.00;99.90
53045;DHT22;38930;52.766;6.884;2024-03-25T13:27:44;11.60;99.90
53045;DHT22;38930;52.766;6.884;2024-03-25T13:30:09;11.10;99.90
53045;DHT22;38930;52.766;6.884;2024-03-25T13:32:35;11.20;99.90
53045;DHT22;38930;52.766;6.884;2024-03-25T13:35:01;11.60;99.90
53045;DHT22;38930;52.766;6.884;2024-03-25T13:37:26;11.30;99.90
53045;DHT22;38930;52.766;6.884;2024-03-25T13:39:52;11.80;99.90
53045;DHT22;38930;52.766;6.884;2024-03-25T13:42:18;11.60;99.90
53045;DHT22;38930;52.766;6.884;2024-03-25T13:44:44;11.40;99.90
53045;DHT22;38930;52.766;6.884;2024-03-25T13:47:09;11.40;99.90
53045;DHT22;38930;52.766;6.884;2024-03-25T13:49:35;11.30;99.90
53045;DHT22;38930;52.766;6.884;2024-03-25T13:52:00;11.30;99.90
53045;DHT22;38930;52.766;6.884;2024-03-25T13:54:29;11.30;99.90
53045;DHT22;38930;52.766;6.884;2024-03-25T13:56:56;11.40;99.90
53045;DHT22;38930;52.766;6.884;2024-03-25T13:59:22;12.00;99.90
53045;DHT22;38930;52.766;6.884;2024-03-25T14:01:47;11.70;99.90
53045;DHT22;38930;52.766;6.884;2024-03-25T14:04:13;11.80;99.90
53045;DHT22;38930;52.766;6.884;2024-03-25T14:06:39;11.80;99.90
53045;DHT22;38930;52.766;6.884;2024-03-25T14:09:06;11.90;99.90
53045;DHT22;38930;52.766;6.884;2024-03-25T14:11:34;12.00;99.90
53045;DHT22;38930;52.766;6.884;2024-03-25T14:14:00;12.00;99.90
53045;DHT22;38930;52.766;6.884;2024-03-25T14:16:26;12.10;99.90
53045;DHT22;38930;52.766;6.884;2024-03-25T14:18:51;12.10;99.90
53045;DHT22;38930;52.766;6.884;2024-03-25T14:21:17;12.20;99.90
53045;DHT22;38930;52.766;6.884;2024-03-25T14:23:44;12.30;99.90
53045;DHT22;38930;52.766;6.884;2024-03-25T14:26:12;12.10;99.90
53045;DHT22;38930;52.766;6.884;2024-03-25T14:28:38;12.00;99.90
53045;DHT22;38930;52.766;6.884;2024-03-25T14:31:04;12.00;99.90
53045;DHT22;38930;52.766;6.884;2024-03-25T14:33:29;11.90;99.90
53045;DHT22;38930;52.766;6.884;2024-03-25T14:35:56;11.80;99.90
53045;DHT22;38930;52.766;6.884;2024-03-25T14:38:21;11.80;99.90
53045;DHT22;38930;52.766;6.884;2024-03-25T14:40:47;11.80;99.90
53045;DHT22;38930;52.766;6.884;2024-03-25T14:43:12;11.90;99.90
53045;DHT22;38930;52.766;6.884;2024-03-25T14:45:38;12.80;99.90
53045;DHT22;38930;52.766;6.884;2024-03-25T14:48:04;11.80;99.90
53045;DHT22;38930;52.766;6.884;2024-03-25T14:50:30;11.70;99.90
53045;DHT22;38930;52.766;6.884;2024-03-25T14:52:55;11.60;99.90
53045;DHT22;38930;52.766;6.884;2024-03-25T14:55:21;11.50;99.90
53045;DHT22;38930;52.766;6.884;2024-03-25T14:57:47;11.40;99.90
53045;DHT22;38930;52.766;6.884;2024-03-25T15:00:13;11.40;99.90
53045;DHT22;38930;52.766;6.884;2024-03-25T15:02:39;11.30;99.90
53045;DHT22;38930;52.766;6.884;2024-03-25T15:05:05;11.10;99.90
53045;DHT22;38930;52.766;6.884;2024-03-25T15:07:31;11.20;99.90
53045;DHT22;38930;52.766;6.884;2024-03-25T15:09:56;11.40;99.90
53045;DHT22;38930;52.766;6.884;2024-03-25T15:12:22;11.30;99.90
53045;DHT22;38930;52.766;6.884;2024-03-25T15:14:49;11.30;99.90
53045;DHT22;38930;52.766;6.884;2024-03-25T15:17:15;11.60;99.90
53045;DHT22;38930;52.766;6.884;2024-03-25T15:19:41;11.50;99.90
53045;DHT22;38930;52.766;6.884;2024-03-25T15:22:06;11.50;99.90
53045;DHT22;38930;52.766;6.884;2024-03-25T15:24:32;11.50;99.90
53045;DHT22;38930;52.766;6.884;2024-03-25T15:26:57;11.60;99.90
53045;DHT22;38930;52.766;6.884;2024-03-25T15:29:23;11.50;99.90
53045;DHT22;38930;52.766;6.884;2024-03-25T15:31:49;11.50;99.90
53045;DHT22;38930;52.766;6.884;2024-03-25T15:34:14;11.50;99.90
53045;DHT22;38930;52.766;6.884;2024-03-25T15:36:40;11.40;99.90